Time;durP1;ratioP1;P1;durP2;ratioP2;P2;SDS_P1;SDS_P2;PMS_P1;PMS_P2;Temp;Humidity;BMP_temperature;BMP_pressure;BME280_temperature;BME280_humidity;BME280_pressure;Samples;Min_cycle;Max_cycle;Signal;HPM_P1;HPM_P2
2023/04/10 00:01:35;;;;;;;9.23;7.32;;;;;;;10.95;57.43;101858.50;3613710;39;20072;-66
2023/04/10 00:04:02;;;;;;;10.23;7.28;;;;;;;10.91;57.46;101849.72;3614014;39;20043;-66
2023/04/10 00:06:28;;;;;;;9.77;7.68;;;;;;;10.92;56.60;101843.38;3614352;39;20047;-66
2023/04/10 00:08:53;;;;;;;9.68;7.30;;;;;;;10.91;57.23;101841.66;3617080;39;20062;-66
2023/04/10 00:11:19;;;;;;;8.70;7.00;;;;;;;10.90;57.30;101829.97;3615907;39;20177;-66
2023/04/10 00:13:45;;;;;;;9.40;7.13;;;;;;;10.88;57.34;101826.50;3613368;39;20313;-66
2023/04/10 00:16:10;;;;;;;8.20;7.05;;;;;;;10.78;56.36;101805.47;3613851;39;20411;-66
2023/04/10 00:18:36;;;;;;;7.72;6.43;;;;;;;10.88;56.79;101820.28;3617893;39;20059;-66
2023/04/10 00:21:02;;;;;;;11.23;7.57;;;;;;;10.84;56.61;101819.50;3616290;39;20047;-66
2023/04/10 00:23:30;;;;;;;9.02;6.72;;;;;;;10.88;56.39;101821.13;3616594;39;20086;-66
2023/04/10 00:25:56;;;;;;;7.65;6.40;;;;;;;10.88;56.95;101815.75;3616069;39;20050;-66
2023/04/10 00:28:22;;;;;;;9.52;6.65;;;;;;;10.87;56.39;101813.13;3613891;39;20272;-66
2023/04/10 00:30:47;;;;;;;9.15;6.47;;;;;;;10.85;56.37;101809.66;3613698;39;20328;-66
2023/04/10 00:33:13;;;;;;;8.75;7.10;;;;;;;10.86;56.97;101806.00;3616117;39;20054;-67
2023/04/10 00:35:39;;;;;;;7.13;6.35;;;;;;;10.79;56.60;101789.28;3621748;39;20106;-67
2023/04/10 00:38:05;;;;;;;8.95;7.10;;;;;;;10.83;56.90;101804.31;3613445;39;20047;-67
2023/04/10 00:40:30;;;;;;;8.90;7.05;;;;;;;10.83;56.34;101796.25;3615324;39;20054;-66
2023/04/10 00:42:56;;;;;;;9.20;6.95;;;;;;;10.80;56.19;101790.16;3606324;39;20046;-66
2023/04/10 00:45:23;;;;;;;8.10;6.40;;;;;;;10.82;57.04;101801.72;3615208;39;20053;-67
2023/04/10 00:47:49;;;;;;;8.18;6.82;;;;;;;10.81;56.96;101791.88;3615672;39;20102;-66
2023/04/10 00:50:15;;;;;;;8.00;7.00;;;;;;;10.74;56.89;101787.75;3618965;39;20063;-67
2023/04/10 00:52:41;;;;;;;8.55;6.80;;;;;;;10.57;56.66;101761.66;3613173;39;20055;-67
2023/04/10 00:55:08;;;;;;;8.70;6.93;;;;;;;10.72;56.50;101787.84;3605012;39;20142;-66
2023/04/10 00:57:34;;;;;;;8.40;6.72;;;;;;;10.71;56.90;101780.69;3613066;39;20330;-66
2023/04/10 01:00:01;;;;;;;9.40;7.00;;;;;;;10.69;56.46;101785.28;3616909;39;20061;-66
2023/04/10 01:02:26;;;;;;;8.95;6.95;;;;;;;10.66;56.88;101789.00;3612550;39;20057;-66
2023/04/10 01:04:52;;;;;;;7.40;6.50;;;;;;;10.64;57.07;101784.63;3613352;39;20058;-66
2023/04/10 01:07:56;;;;;;;8.95;6.75;;;;;;;10.60;56.88;101783.03;3614474;39;20099;-66
2023/04/10 01:10:48;;;;;;;7.90;6.32;;;;;;;10.57;57.45;101783.19;3598284;39;20086;-66
2023/04/10 01:13:38;;;;;;;8.40;6.57;;;;;;;10.55;56.99;101785.91;3616806;39;20054;-66
2023/04/10 01:16:23;;;;;;;7.90;6.38;;;;;;;10.53;57.91;101774.38;3618341;39;20057;-65
2023/04/10 01:18:58;;;;;;;9.15;7.28;;;;;;;10.50;57.15;101770.94;3608240;39;20377;-66
2023/04/10 01:21:26;;;;;;;8.65;6.57;;;;;;;10.52;57.46;101771.75;3618148;39;20042;-66
2023/04/10 01:24:20;;;;;;;7.90;6.72;;;;;;;10.45;57.26;101763.97;3613624;39;20299;-67
2023/04/10 01:27:29;;;;;;;9.05;7.15;;;;;;;10.44;58.17;101770.28;3613373;39;20070;-66
2023/04/10 01:30:01;;;;;;;9.73;7.07;;;;;;;10.41;57.48;101766.88;3615002;39;20049;-67
2023/04/10 01:32:34;;;;;;;8.18;6.63;;;;;;;10.40;57.68;101771.38;3618864;39;20057;-67
2023/04/10 01:35:06;;;;;;;9.10;7.30;;;;;;;10.39;57.60;101769.63;3615865;39;20100;-67
2023/04/10 01:37:39;;;;;;;7.88;6.60;;;;;;;10.38;58.01;101765.19;3614682;39;20055;-67
2023/04/10 01:40:10;;;;;;;;;;;;;;;10.17;57.71;101736.59;3614721;39;20046;-67
2023/04/10 01:42:54;;;;;;;7.40;6.45;;;;;;;10.32;57.55;101762.78;3615003;39;20188;-67
2023/04/10 01:45:27;;;;;;;8.48;6.97;;;;;;;10.30;57.52;101761.97;3613503;39;20111;-67
2023/04/10 01:47:55;;;;;;;8.60;6.70;;;;;;;9.88;58.13;101692.25;3613378;39;20062;-67
2023/04/10 01:50:26;;;;;;;8.65;6.95;;;;;;;10.25;58.19;101755.06;3613311;39;20358;-67
2023/04/10 01:52:53;;;;;;;7.95;6.90;;;;;;;10.18;58.34;101743.69;3612810;39;20051;-67
2023/04/10 01:55:20;;;;;;;8.68;7.03;;;;;;;10.17;57.78;101744.66;3614451;39;20043;-67
2023/04/10 01:57:50;;;;;;;8.23;6.88;;;;;;;9.79;58.33;101679.22;3613132;39;20075;-67
2023/04/10 02:00:16;;;;;;;8.77;7.50;;;;;;;10.14;58.20;101742.09;3616923;39;20058;-67
2023/04/10 02:02:43;;;;;;;8.82;6.60;;;;;;;10.06;58.60;101717.41;3612523;39;20742;-67
2023/04/10 02:05:12;;;;;;;7.70;6.90;;;;;;;10.10;58.62;101727.06;3612855;39;20051;-67
2023/04/10 02:08:07;;;;;;;7.00;5.75;;;;;;;10.07;58.56;101717.31;3612524;39;20049;-67
2023/04/10 02:10:55;;;;;;;9.73;6.90;;;;;;;10.05;57.72;101712.97;3612825;39;20059;-67
2023/04/10 02:13:26;;;;;;;9.13;7.32;;;;;;;9.73;58.44;101661.56;3615012;39;20528;-67
2023/04/10 02:15:58;;;;;;;8.40;6.72;;;;;;;9.86;57.98;101684.25;3614920;39;20059;-67
2023/04/10 02:18:26;;;;;;;8.23;6.75;;;;;;;9.99;57.61;101701.56;3614396;39;20093;-67
2023/04/10 02:20:53;;;;;;;8.48;6.88;;;;;;;10.03;57.84;101712.19;3614924;39;20382;-67
2023/04/10 02:23:20;;;;;;;8.82;7.10;;;;;;;10.02;57.47;101705.03;3615284;39;20138;-67
2023/04/10 02:25:45;;;;;;;8.82;6.78;;;;;;;10.03;58.12;101704.13;3614345;39;20542;-67
2023/04/10 02:28:11;;;;;;;9.18;7.20;;;;;;;10.00;57.69;101697.94;3613917;39;20050;-67
2023/04/10 02:30:38;;;;;;;8.75;7.10;;;;;;;9.99;58.30;101690.81;3614149;39;20057;-67
2023/04/10 02:33:04;;;;;;;9.80;7.65;;;;;;;10.06;58.09;101706.66;3614537;39;20086;-67
2023/04/10 02:35:29;;;;;;;8.35;6.75;;;;;;;10.06;57.30;101701.28;3606285;39;20321;-67
2023/04/10 02:37:55;;;;;;;7.55;6.53;;;;;;;10.05;57.37;101694.16;3614690;39;20106;-67
2023/04/10 02:40:21;;;;;;;8.07;6.70;;;;;;;10.06;58.02;101696.78;3616349;39;20054;-66
2023/04/10 02:42:47;;;;;;;9.55;7.05;;;;;;;10.06;57.26;101690.56;3615953;39;20059;-66
2023/04/10 02:45:12;;;;;;;7.68;6.30;;;;;;;10.06;57.69;101699.47;3615224;39;20062;-65
2023/04/10 02:47:38;;;;;;;10.00;7.22;;;;;;;9.33;57.51;101569.44;3614412;39;20055;-66
2023/04/10 02:50:04;;;;;;;9.90;7.75;;;;;;;10.08;58.14;101702.06;3614369;39;20054;-66
2023/04/10 02:52:30;;;;;;;7.75;6.90;;;;;;;10.07;58.02;101703.03;3614925;39;20077;-66
2023/04/10 02:54:55;;;;;;;9.18;7.43;;;;;;;10.03;58.00;101706.81;3616773;39;20417;-66
2023/04/10 02:57:21;;;;;;;8.80;7.45;;;;;;;9.96;58.46;101688.28;3615120;39;20062;-67
2023/04/10 02:59:50;;;;;;;7.53;6.47;;;;;;;9.75;58.05;101649.81;3617484;39;20090;-66
2023/04/10 03:02:15;;;;;;;7.57;6.20;;;;;;;9.99;58.22;101685.47;3614145;39;20077;-66
2023/04/10 03:04:41;;;;;;;8.30;6.35;;;;;;;10.02;58.00;101692.47;3613571;39;20405;-66
2023/04/10 03:07:08;;;;;;;8.02;6.82;;;;;;;10.02;57.35;101694.28;3615019;39;20058;-66
2023/04/10 03:09:34;;;;;;;7.75;6.35;;;;;;;9.95;57.42;101674.91;3615488;39;20470;-66
2023/04/10 03:12:00;;;;;;;7.50;6.50;;;;;;;9.97;57.36;101692.69;3615053;39;20074;-66
2023/04/10 03:14:27;;;;;;;8.68;6.47;;;;;;;9.84;57.63;101674.53;3614128;39;20077;-66
2023/04/10 03:16:52;;;;;;;8.50;6.15;;;;;;;9.96;58.52;101707.09;3614776;39;20143;-67
2023/04/10 03:19:18;;;;;;;7.55;6.50;;;;;;;9.94;58.57;101708.94;3614335;39;20062;-67
2023/04/10 03:21:45;;;;;;;10.55;7.28;;;;;;;9.92;57.73;101710.81;3615563;39;20081;-66
2023/04/10 03:24:11;;;;;;;8.48;6.70;;;;;;;9.89;57.66;101713.66;3616830;39;20082;-67
2023/04/10 03:26:37;;;;;;;14.13;9.95;;;;;;;9.87;58.10;101701.25;3615328;39;20051;-67
2023/04/10 03:29:02;;;;;;;31.60;19.27;;;;;;;9.71;58.22;101676.91;3614610;39;20160;-67
2023/04/10 03:31:28;;;;;;;10.20;7.70;;;;;;;9.62;58.00;101670.13;3613686;39;20362;-67
2023/04/10 03:33:54;;;;;;;21.05;14.35;;;;;;;9.82;58.41;101704.13;3614865;39;20293;-67
2023/04/10 03:36:20;;;;;;;12.27;8.63;;;;;;;9.77;57.59;101695.44;3616650;39;20399;-66
2023/04/10 03:38:45;;;;;;;8.52;6.43;;;;;;;9.76;57.80;101693.66;3606472;39;20058;-67
2023/04/10 03:41:11;;;;;;;8.90;6.65;;;;;;;9.76;58.01;101690.97;3614691;39;20114;-67
2023/04/10 03:43:38;;;;;;;7.70;6.38;;;;;;;9.73;58.25;101688.41;3614499;39;20054;-66
2023/04/10 03:46:05;;;;;;;9.43;7.00;;;;;;;9.71;58.60;101683.13;3615364;39;20111;-66
2023/04/10 03:48:31;;;;;;;8.57;6.68;;;;;;;9.54;57.95;101657.00;3618125;39;20046;-66
2023/04/10 03:50:57;;;;;;;9.98;7.10;;;;;;;9.66;58.54;101677.09;3619775;39;20051;-66
2023/04/10 03:53:23;;;;;;;8.02;6.75;;;;;;;9.65;58.32;101679.84;3620164;39;20445;-66
2023/04/10 03:55:51;;;;;;;10.15;7.70;;;;;;;9.64;57.56;101678.09;3619920;39;20061;-66
2023/04/10 03:58:18;;;;;;;8.45;7.10;;;;;;;9.62;58.28;101672.81;3618702;39;20086;-67
2023/04/10 04:00:44;;;;;;;8.45;7.25;;;;;;;9.61;57.72;101672.84;3614711;39;20051;-67
2023/04/10 04:03:10;;;;;;;7.70;6.68;;;;;;;9.59;57.92;101675.63;3613836;39;20043;-66
2023/04/10 04:05:36;;;;;;;10.43;7.43;;;;;;;9.59;57.80;101659.50;3613420;39;20059;-66
2023/04/10 04:08:05;;;;;;;7.85;6.75;;;;;;;9.58;58.55;101668.53;3617647;39;20095;-67
2023/04/10 04:10:31;;;;;;;9.60;7.47;;;;;;;9.57;57.62;101665.88;3618133;39;20481;-66
2023/04/10 04:12:57;;;;;;;8.55;7.22;;;;;;;9.54;58.37;101662.38;3619155;39;20059;-66
2023/04/10 04:15:23;;;;;;;10.98;7.13;;;;;;;9.51;58.64;101657.19;3618614;39;20085;-66
2023/04/10 04:17:48;;;;;;;8.63;7.70;;;;;;;9.50;58.24;101651.88;3614087;39;20086;-66
2023/04/10 04:20:14;;;;;;;10.00;8.05;;;;;;;9.49;58.56;101651.00;3616543;39;20054;-66
2023/04/10 04:22:40;;;;;;;9.27;7.68;;;;;;;9.47;58.25;101644.81;3614478;39;20069;-66
2023/04/10 04:25:09;;;;;;;9.77;7.50;;;;;;;9.43;58.96;101648.59;3613428;39;20050;-67
2023/04/10 04:27:36;;;;;;;9.75;7.90;;;;;;;9.48;58.10;101654.63;3613430;39;20057;-67
2023/04/10 04:30:02;;;;;;;10.18;7.65;;;;;;;9.45;57.82;101646.72;3613870;39;20058;-66
2023/04/10 04:32:28;;;;;;;10.95;7.97;;;;;;;9.45;58.29;101644.03;3613329;39;20090;-66
2023/04/10 04:34:53;;;;;;;11.38;7.63;;;;;;;9.44;58.96;101641.41;3613455;39;20086;-66
2023/04/10 04:37:19;;;;;;;9.13;8.10;;;;;;;9.42;58.44;101641.47;3613985;39;20304;-68
2023/04/10 04:39:45;;;;;;;10.63;8.07;;;;;;;9.41;59.32;101639.72;3614647;39;20066;-68
2023/04/10 04:42:10;;;;;;;10.88;8.40;;;;;;;9.41;59.01;101641.53;3615130;39;20046;-66
2023/04/10 04:44:36;;;;;;;10.50;8.05;;;;;;;9.32;59.82;101624.03;3614911;39;20047;-68
2023/04/10 04:47:01;;;;;;;9.93;8.18;;;;;;;9.37;60.12;101638.13;3616060;39;20105;-66
2023/04/10 04:49:27;;;;;;;10.52;8.30;;;;;;;9.26;59.72;101619.81;3613996;39;20055;-66
2023/04/10 04:51:53;;;;;;;9.15;7.28;;;;;;;9.35;59.54;101639.97;3613928;39;20051;-66
2023/04/10 04:54:18;;;;;;;9.73;7.68;;;;;;;9.35;59.78;101628.38;3613644;39;20397;-66
2023/04/10 04:56:44;;;;;;;10.43;8.20;;;;;;;9.35;59.76;101634.63;3613763;39;20071;-66
2023/04/10 04:59:09;;;;;;;10.18;7.63;;;;;;;9.33;59.79;101631.16;3614571;39;20055;-66
2023/04/10 05:01:35;;;;;;;10.95;8.27;;;;;;;9.36;59.00;101638.19;3615598;39;20061;-66
2023/04/10 05:04:00;;;;;;;13.00;7.85;;;;;;;9.35;59.44;101633.75;3614187;39;20058;-67
2023/04/10 05:06:26;;;;;;;9.05;7.40;;;;;;;9.34;59.19;101632.88;3613530;39;20343;-68
2023/04/10 05:08:52;;;;;;;10.00;7.65;;;;;;;9.33;59.46;101630.28;3613589;39;20050;-68
2023/04/10 05:11:17;;;;;;;9.40;7.65;;;;;;;9.35;59.17;101628.38;3613624;39;20050;-67
2023/04/10 05:13:43;;;;;;;9.13;7.63;;;;;;;9.35;59.98;101621.19;3613576;39;20531;-68
2023/04/10 05:16:09;;;;;;;10.40;7.90;;;;;;;9.33;60.20;101607.00;3615662;39;20165;-67
2023/04/10 05:18:35;;;;;;;8.45;7.53;;;;;;;9.33;60.74;101611.50;3613994;39;20086;-67
2023/04/10 05:21:00;;;;;;;9.82;7.93;;;;;;;9.33;60.07;101603.44;3613673;39;20285;-68
2023/04/10 05:23:26;;;;;;;9.60;7.75;;;;;;;9.33;60.61;101607.00;3614169;39;20050;-68
2023/04/10 05:25:52;;;;;;;10.38;7.63;;;;;;;9.32;60.21;101602.56;3617688;39;20061;-68
2023/04/10 05:28:17;;;;;;;11.48;7.75;;;;;;;9.13;59.65;101564.94;3613155;39;20059;-68
2023/04/10 05:30:43;;;;;;;9.98;7.40;;;;;;;9.34;58.83;101602.50;3614122;39;20116;-67
2023/04/10 05:33:09;;;;;;;8.50;7.00;;;;;;;9.39;58.73;101604.06;3614092;39;20123;-68
2023/04/10 05:35:35;;;;;;;8.68;6.97;;;;;;;9.45;58.93;101608.25;3613688;39;20050;-67
2023/04/10 05:38:00;;;;;;;7.63;6.43;;;;;;;9.50;58.64;101607.09;3613259;39;20086;-67
2023/04/10 05:40:28;;;;;;;10.65;7.45;;;;;;;9.58;58.23;101608.56;3619732;39;20070;-68
2023/04/10 05:42:53;;;;;;;9.70;7.55;;;;;;;9.60;57.76;101606.69;3613707;39;20039;-68
2023/04/10 05:45:19;;;;;;;8.32;6.68;;;;;;;9.58;57.32;101592.47;3615867;39;20156;-67
2023/04/10 05:47:44;;;;;;;8.65;7.05;;;;;;;9.74;56.98;101612.31;3617297;39;20054;-67
2023/04/10 05:50:10;;;;;;;8.55;7.10;;;;;;;9.78;57.13;101608.56;3614469;39;20279;-67
2023/04/10 05:52:35;;;;;;;8.00;6.93;;;;;;;9.86;56.48;101608.19;3614783;39;20116;-67
2023/04/10 05:55:02;;;;;;;8.13;6.88;;;;;;;9.90;56.60;101618.72;3614508;39;20055;-67
2023/04/10 05:57:28;;;;;;;8.70;7.35;;;;;;;9.96;56.10;101625.63;3614822;39;20077;-67
2023/04/10 05:59:54;;;;;;;9.23;6.93;;;;;;;10.00;56.12;101614.66;3618275;39;20055;-67
2023/04/10 06:02:20;;;;;;;8.32;7.05;;;;;;;10.07;56.00;101617.94;3614622;39;20077;-68
2023/04/10 06:04:46;;;;;;;7.90;6.65;;;;;;;10.13;55.58;101624.84;3615002;39;20053;-68
2023/04/10 06:07:12;;;;;;;8.93;6.65;;;;;;;10.19;55.74;101624.56;3616513;39;20114;-68
2023/04/10 06:09:37;;;;;;;9.70;6.85;;;;;;;10.24;54.49;101625.19;3617467;39;20285;-67
2023/04/10 06:12:03;;;;;;;7.68;6.75;;;;;;;10.29;55.23;101617.81;3614816;39;20366;-69
2023/04/10 06:14:29;;;;;;;8.65;7.13;;;;;;;10.35;54.32;101616.66;3618018;39;20055;-67
2023/04/10 06:16:54;;;;;;;7.80;6.85;;;;;;;10.41;54.70;101621.75;3615552;39;20062;-67
2023/04/10 06:19:20;;;;;;;7.50;6.75;;;;;;;10.45;54.67;101616.13;3615260;39;20043;-67
2023/04/10 06:21:46;;;;;;;9.10;6.93;;;;;;;10.51;54.21;101616.78;3617618;39;20043;-67
2023/04/10 06:24:12;;;;;;;8.00;6.85;;;;;;;10.55;54.16;101607.63;3617359;39;20055;-67
2023/04/10 06:26:38;;;;;;;8.48;6.82;;;;;;;10.56;54.82;101593.22;3612576;39;20068;-68
2023/04/10 06:29:04;;;;;;;8.75;6.57;;;;;;;10.66;54.36;101606.16;3617257;39;20085;-67
2023/04/10 06:31:32;;;;;;;7.93;7.00;;;;;;;10.69;53.82;101584.50;3615333;39;20059;-69
2023/04/10 06:33:59;;;;;;;6.93;6.20;;;;;;;10.75;52.96;101583.31;3608647;39;20043;-68
2023/04/10 06:36:26;;;;;;;8.10;7.28;;;;;;;10.78;52.86;101577.75;3614929;39;20160;-67
2023/04/10 06:38:51;;;;;;;7.82;6.60;;;;;;;10.86;53.52;101575.56;3617166;39;20090;-67
2023/04/10 06:41:17;;;;;;;7.82;6.70;;;;;;;10.90;52.60;101577.13;3623770;39;20156;-67
2023/04/10 06:43:42;;;;;;;7.43;6.40;;;;;;;10.97;51.74;101571.44;3616950;39;20062;-67
2023/04/10 06:46:08;;;;;;;6.80;6.10;;;;;;;11.03;52.05;101568.44;3615758;39;20066;-68
2023/04/10 06:48:34;;;;;;;7.15;6.20;;;;;;;11.10;52.67;101562.66;3616341;39;20059;-67
2023/04/10 06:50:59;;;;;;;7.80;6.30;;;;;;;11.18;51.57;101556.00;3614802;39;20065;-68
2023/04/10 06:53:26;;;;;;;7.38;6.68;;;;;;;11.24;51.76;101555.69;3614556;39;20047;-67
2023/04/10 06:55:52;;;;;;;8.45;6.80;;;;;;;11.30;51.42;101548.16;3617359;39;20086;-68
2023/04/10 06:58:17;;;;;;;8.80;7.00;;;;;;;11.07;51.19;101497.38;3614664;39;20321;-68
2023/04/10 07:00:43;;;;;;;7.93;6.45;;;;;;;11.36;50.40;101542.44;3614709;39;20086;-67
2023/04/10 07:03:09;;;;;;;8.30;6.70;;;;;;;11.43;51.07;101536.72;3618607;39;20078;-68
2023/04/10 07:05:34;;;;;;;6.85;6.07;;;;;;;11.47;50.37;101536.47;3612951;39;20058;-67
2023/04/10 07:08:00;;;;;;;8.80;6.25;;;;;;;11.52;50.47;101533.53;3616054;39;20053;-67
2023/04/10 07:10:25;;;;;;;6.65;5.95;;;;;;;11.55;50.08;101525.31;3619382;39;20094;-67
2023/04/10 07:12:51;;;;;;;7.57;6.40;;;;;;;11.59;50.18;101533.09;3618090;39;20066;-67
2023/04/10 07:15:17;;;;;;;10.30;6.35;;;;;;;11.62;50.68;101524.00;3617114;39;20434;-68
2023/04/10 07:17:42;;;;;;;8.32;6.45;;;;;;;11.62;49.72;101521.31;3617393;39;20149;-67
2023/04/10 07:20:09;;;;;;;7.18;6.35;;;;;;;11.65;49.78;101521.13;3618494;39;20114;-67
2023/04/10 07:22:35;;;;;;;7.22;6.35;;;;;;;11.69;50.20;101516.44;3617624;39;20046;-67
2023/04/10 07:25:00;;;;;;;7.50;6.45;;;;;;;11.71;49.81;101504.66;3614565;39;20046;-67
2023/04/10 07:27:26;;;;;;;9.90;6.38;;;;;;;11.63;49.61;101474.56;3617114;39;20055;-68
2023/04/10 07:29:55;;;;;;;7.88;6.18;;;;;;;11.69;49.79;101462.59;3617720;39;20132;-67
2023/04/10 07:32:22;;;;;;;6.93;6.05;;;;;;;11.97;50.12;101505.03;3616579;39;20046;-67
2023/04/10 07:34:47;;;;;;;7.07;5.78;;;;;;;12.05;49.27;101502.75;3620538;39;20376;-67
2023/04/10 07:37:14;;;;;;;7.57;6.35;;;;;;;12.17;49.31;101502.06;3618192;39;20158;-68
2023/04/10 07:39:40;;;;;;;8.45;5.88;;;;;;;12.26;48.65;101503.34;3620058;39;20054;-67
2023/04/10 07:42:05;;;;;;;6.82;5.82;;;;;;;12.33;48.83;101491.25;3618894;39;20066;-68
2023/04/10 07:44:31;;;;;;;8.73;6.60;;;;;;;12.46;48.51;101481.50;3616451;39;20062;-68
2023/04/10 07:46:57;;;;;;;7.68;5.95;;;;;;;12.62;48.55;101480.56;3617811;39;20065;-68
2023/04/10 07:49:23;;;;;;;6.97;5.80;;;;;;;12.81;47.89;101470.38;3615394;39;20052;-68
2023/04/10 07:51:49;;;;;;;6.60;5.80;;;;;;;13.00;47.88;101464.72;3621257;39;20379;-68
2023/04/10 07:54:15;;;;;;;7.47;6.65;;;;;;;13.26;47.00;101467.66;3613885;39;20398;-67
2023/04/10 07:56:40;;;;;;;6.70;5.80;;;;;;;13.35;46.43;101435.59;3614001;39;20050;-67
2023/04/10 07:59:06;;;;;;;6.93;5.68;;;;;;;13.78;45.44;101457.09;3615722;39;20451;-68
2023/04/10 08:01:32;;;;;;;7.05;5.70;;;;;;;14.04;44.89;101452.69;3615652;39;20281;-68
2023/04/10 08:03:58;;;;;;;7.15;5.90;;;;;;;14.24;44.79;101436.97;3616486;39;20056;-67
2023/04/10 08:06:24;;;;;;;6.35;5.43;;;;;;;14.39;43.93;101436.78;3617255;39;20061;-68
2023/04/10 08:08:51;;;;;;;8.15;6.15;;;;;;;14.52;44.31;101444.97;3618726;39;20082;-67
2023/04/10 08:11:30;;;;;;;6.13;5.45;;;;;;;14.57;44.19;101436.56;3616350;39;20047;-68
2023/04/10 08:14:01;;;;;;;6.05;5.43;;;;;;;14.60;44.31;101439.03;3616172;39;20042;-67
2023/04/10 08:16:33;;;;;;;7.18;5.78;;;;;;;14.53;44.22;101427.78;3616145;39;20050;-67
2023/04/10 08:19:00;;;;;;;6.13;5.50;;;;;;;14.51;44.29;101435.13;3616331;39;20424;-67
2023/04/10 08:21:29;;;;;;;8.00;6.00;;;;;;;14.51;44.65;101432.41;3617326;39;20051;-68
2023/04/10 08:23:58;;;;;;;6.63;5.95;;;;;;;14.54;45.39;101428.66;3618369;39;20050;-67
2023/04/10 08:26:26;;;;;;;6.07;5.50;;;;;;;14.51;45.01;101424.31;3619188;39;20050;-67
2023/04/10 08:28:55;;;;;;;6.65;5.95;;;;;;;14.49;44.73;101428.91;3615931;39;20067;-68
2023/04/10 08:31:23;;;;;;;5.82;5.30;;;;;;;14.28;44.72;101387.13;3617491;39;20116;-68
2023/04/10 08:33:48;;;;;;;5.93;5.43;;;;;;;14.50;44.29;101427.97;3606161;39;20073;-68
2023/04/10 08:36:15;;;;;;;8.02;5.88;;;;;;;14.49;44.52;101430.75;3616121;39;20066;-68
2023/04/10 08:38:42;;;;;;;5.97;5.38;;;;;;;14.27;44.87;101377.25;3616845;39;20066;-68
2023/04/10 08:41:15;;;;;;;6.05;5.45;;;;;;;14.63;44.67;101415.34;3613122;39;20083;-67
2023/04/10 08:43:42;;;;;;;6.32;5.13;;;;;;;14.69;44.99;101408.66;3617329;39;20046;-68
2023/04/10 08:46:08;;;;;;;6.07;5.45;;;;;;;14.75;44.57;101399.25;3606835;39;20063;-67
2023/04/10 08:49:00;;;;;;;6.72;6.00;;;;;;;14.78;44.61;101409.81;3615905;39;20054;-68
2023/04/10 08:51:46;;;;;;;7.13;5.35;;;;;;;14.82;44.82;101414.06;3609876;39;20062;-68
2023/04/10 08:54:26;;;;;;;6.30;5.60;;;;;;;14.80;44.31;101413.28;3614966;39;20099;-67
2023/04/10 08:56:55;;;;;;;7.38;5.55;;;;;;;14.81;44.46;101415.03;3615192;39;20409;-68
2023/04/10 08:59:21;;;;;;;6.15;5.53;;;;;;;14.81;44.46;101404.19;3613935;39;20050;-68
2023/04/10 09:01:47;;;;;;;8.20;5.70;;;;;;;14.57;44.42;101377.03;3613046;39;20381;-68
2023/04/10 09:04:13;;;;;;;6.93;5.57;;;;;;;14.73;45.26;101412.88;3613126;39;20051;-68
2023/04/10 09:06:39;;;;;;;6.72;6.03;;;;;;;14.75;45.29;101396.53;3614592;39;20059;-68
2023/04/10 09:09:08;;;;;;;6.38;5.53;;;;;;;14.76;44.87;101400.97;3614619;39;20078;-68
2023/04/10 09:12:03;;;;;;;5.90;5.30;;;;;;;14.85;45.01;101405.72;3614830;39;20128;-68
2023/04/10 09:14:36;;;;;;;6.75;5.47;;;;;;;14.66;45.60;101345.75;3603178;39;20079;-68
2023/04/10 09:17:22;;;;;;;9.40;5.88;;;;;;;15.01;45.42;101395.53;3617972;39;20124;-68
2023/04/10 09:19:56;;;;;;;6.18;5.57;;;;;;;15.16;44.74;101392.69;3613879;39;20067;-67
2023/04/10 09:22:34;;;;;;;6.45;5.40;;;;;;;15.23;44.92;101399.41;3613190;39;20057;-68
2023/04/10 09:25:03;;;;;;;7.55;5.38;;;;;;;15.29;44.73;101394.41;3616743;39;20054;-68
2023/04/10 09:27:40;;;;;;;6.10;5.50;;;;;;;15.36;44.68;101389.41;3617398;39;20075;-67
2023/04/10 09:30:07;;;;;;;6.63;5.43;;;;;;;15.33;44.37;101368.84;3614073;39;20075;-68
2023/04/10 09:32:41;;;;;;;5.30;4.82;;;;;;;15.46;44.69;101386.91;3614810;39;20051;-68
2023/04/10 09:35:12;;;;;;;6.03;5.32;;;;;;;15.47;44.35;101367.81;3612975;39;20049;-68
2023/04/10 09:37:41;;;;;;;5.97;5.38;;;;;;;15.47;44.45;101365.09;3613511;39;20046;-68
2023/04/10 09:40:21;;;;;;;5.60;5.10;;;;;;;15.45;44.36;101349.97;3615462;39;20067;-68
2023/04/10 09:42:47;;;;;;;6.35;5.75;;;;;;;15.46;44.50;101346.25;3614149;39;20047;-68
2023/04/10 09:45:13;;;;;;;6.65;5.47;;;;;;;15.47;44.91;101340.72;3617621;39;20057;-68
2023/04/10 09:47:38;;;;;;;6.13;4.90;;;;;;;15.46;44.71;101333.56;3614310;39;20051;-68
2023/04/10 09:50:04;;;;;;;5.85;5.28;;;;;;;15.49;44.61;101330.63;3613089;39;20059;-67
2023/04/10 09:52:34;;;;;;;5.93;5.00;;;;;;;15.52;45.16;101329.56;3613273;39;20285;-68
2023/04/10 09:55:07;;;;;;;5.43;4.80;;;;;;;15.56;45.48;101323.78;3612872;39;20158;-69
2023/04/10 09:57:34;;;;;;;;;;;;;;;15.64;45.10;101323.22;3618006;39;20107;-68
2023/04/10 10:00:05;;;;;;;6.30;5.28;;;;;;;15.73;45.27;101321.66;3612664;39;20162;-68
2023/04/10 10:02:40;;;;;;;5.15;4.63;;;;;;;15.86;44.38;101327.03;3615314;39;20058;-68
2023/04/10 10:05:06;;;;;;;5.13;4.65;;;;;;;15.92;44.86;101318.41;3612861;39;20063;-68
2023/04/10 10:07:33;;;;;;;5.07;4.57;;;;;;;16.01;44.10;101312.28;3613220;39;20087;-67
2023/04/10 10:10:02;;;;;;;5.20;4.70;;;;;;;16.10;43.46;101319.72;3613054;39;20047;-68
2023/04/10 10:12:42;;;;;;;5.57;4.55;;;;;;;16.20;43.57;101317.16;3615381;39;20047;-68
2023/04/10 10:15:29;;;;;;;5.07;4.60;;;;;;;16.35;43.81;101315.09;3612692;39;20131;-67
2023/04/10 10:18:15;;;;;;;4.65;4.25;;;;;;;16.54;43.05;101304.53;3612778;39;20047;-68
2023/04/10 10:20:45;;;;;;;6.30;3.90;;;;;;;16.72;43.42;101299.50;3614493;39;20367;-68
2023/04/10 10:23:12;;;;;;;4.43;4.03;;;;;;;16.85;42.75;101305.69;3614920;39;20054;-68
2023/04/10 10:25:38;;;;;;;4.15;3.75;;;;;;;16.99;42.40;101290.97;3614800;39;20050;-69
2023/04/10 10:28:04;;;;;;;4.43;3.80;;;;;;;17.20;42.14;101291.09;3612912;39;20060;-68
2023/04/10 10:30:32;;;;;;;4.43;3.97;;;;;;;17.52;40.97;101282.13;3613100;39;20058;-68
2023/04/10 10:33:01;;;;;;;4.80;3.88;;;;;;;17.76;40.60;101276.44;3612693;39;20112;-68
2023/04/10 10:35:29;;;;;;;4.07;3.70;;;;;;;17.95;39.91;101276.66;3613706;39;20120;-68
2023/04/10 10:37:59;;;;;;;4.10;3.60;;;;;;;18.24;40.17;101267.84;3614356;39;20043;-68
2023/04/10 10:40:32;;;;;;;3.80;3.35;;;;;;;18.37;39.38;101267.63;3619258;39;20133;-68
2023/04/10 10:43:35;;;;;;;3.97;3.50;;;;;;;18.30;38.82;101270.88;3616465;39;20047;-69
2023/04/10 10:46:11;;;;;;;4.25;3.85;;;;;;;18.30;39.81;101256.41;3615177;39;20147;-68
2023/04/10 10:48:37;;;;;;;8.15;3.90;;;;;;;18.15;39.29;101250.44;3615036;39;20043;-68
2023/04/10 10:51:03;;;;;;;6.05;3.15;;;;;;;18.19;39.46;101256.47;3613657;39;20066;-68
2023/04/10 10:53:41;;;;;;;5.53;3.78;;;;;;;18.12;39.10;101250.72;3614348;39;20052;-68
2023/04/10 10:56:22;;;;;;;5.65;3.40;;;;;;;18.08;38.96;101241.09;3614145;39;20102;-68
2023/04/10 10:58:58;;;;;;;4.57;4.07;;;;;;;18.00;39.49;101233.56;3614993;39;20100;-68
2023/04/10 11:01:25;;;;;;;3.47;3.17;;;;;;;18.15;38.99;101231.38;3614928;39;20059;-67
2023/04/10 11:03:51;;;;;;;4.55;3.65;;;;;;;18.27;39.70;101219.44;3614544;39;20058;-68
2023/04/10 11:06:50;;;;;;;4.03;3.55;;;;;;;18.57;38.59;101231.31;3613972;39;20365;-68
2023/04/10 11:09:46;;;;;;;3.83;3.15;;;;;;;18.73;38.06;101214.50;3618856;39;20050;-68
2023/04/10 11:12:11;;;;;;;3.58;3.28;;;;;;;18.96;38.80;101217.84;3618018;39;20328;-68
2023/04/10 11:14:40;;;;;;;3.80;3.50;;;;;;;19.17;38.42;101217.75;3618072;39;20055;-67
2023/04/10 11:17:06;;;;;;;3.80;3.50;;;;;;;19.41;37.81;101212.78;3618759;39;20062;-68
2023/04/10 11:19:59;;;;;;;5.50;3.90;;;;;;;19.76;37.91;101202.28;3614690;39;20053;-67
2023/04/10 11:22:26;;;;;;;3.35;3.08;;;;;;;19.75;36.29;101167.84;3618327;39;20054;-68
2023/04/10 11:24:56;;;;;;;3.35;3.05;;;;;;;20.12;36.35;101190.59;3605449;39;20304;-68
2023/04/10 11:27:40;;;;;;;3.38;3.13;;;;;;;20.31;36.45;101183.34;3615065;39;20051;-68
2023/04/10 11:30:29;;;;;;;4.97;3.30;;;;;;;20.30;35.88;101184.38;3615814;39;20405;-68
2023/04/10 11:32:56;;;;;;;3.35;3.00;;;;;;;20.22;36.39;101176.06;3615424;39;20086;-67
2023/04/10 11:35:22;;;;;;;3.45;3.15;;;;;;;20.06;36.32;101177.53;3615024;39;20110;-68